createdAt,value
2022-11-14T00:01:35.576Z,76.90
2022-11-14T00:04:57.953Z,67.15
2022-11-14T00:08:25.180Z,72.10
2022-11-14T00:11:46.229Z,95.35
2022-11-14T00:15:07.885Z,91.97
2022-11-14T00:18:29.566Z,93.70
2022-11-14T00:21:53.073Z,118.28
2022-11-14T00:25:14.238Z,116.57
2022-11-14T00:28:35.016Z,116.68
2022-11-14T00:31:55.676Z,115.90
2022-11-14T00:35:16.384Z,128.65
2022-11-14T00:38:38.026Z,127.82
2022-11-14T00:41:59.238Z,111.57
2022-11-14T00:45:20.313Z,113.55
2022-11-14T00:48:41.337Z,118.30
2022-11-14T00:52:03.372Z,116.50
2022-11-14T00:55:25.032Z,108.53
2022-11-14T00:58:46.259Z,113.70
2022-11-14T01:02:07.046Z,121.15
2022-11-14T01:05:28.065Z,173.80
2022-11-14T01:08:51.377Z,125.55
2022-11-14T01:12:12.521Z,119.90
2022-11-14T01:15:33.541Z,113.55
2022-11-14T01:18:54.310Z,98.70
2022-11-14T01:22:15.121Z,138.63
2022-11-14T01:25:37.309Z,134.77
2022-11-14T01:28:58.260Z,134.02
2022-11-14T01:32:20.432Z,99.35
2022-11-14T01:35:42.852Z,101.53
2022-11-14T01:39:04.040Z,73.57
2022-11-14T01:42:27.405Z,59.10
2022-11-14T01:45:51.762Z,66.68
2022-11-14T01:49:27.473Z,67.18
2022-11-14T01:52:48.188Z,58.55
2022-11-14T01:56:10.489Z,61.90
2022-11-14T01:59:36.697Z,63.40
2022-11-14T02:02:58.397Z,87.70
2022-11-14T02:06:23.651Z,76.88
2022-11-14T02:09:47.019Z,77.93
2022-11-14T02:13:08.510Z,84.10
2022-11-14T02:16:29.505Z,107.47
2022-11-14T02:20:02.134Z,69.78
2022-11-14T02:23:30.045Z,54.97
2022-11-14T02:26:50.992Z,57.45
2022-11-14T02:30:19.894Z,60.50
2022-11-14T02:33:42.509Z,66.03
2022-11-14T02:37:03.321Z,48.17
2022-11-14T02:40:24.656Z,63.42
2022-11-14T02:43:45.426Z,74.95
2022-11-14T02:47:06.245Z,47.00
2022-11-14T02:50:27.320Z,53.30
2022-11-14T02:53:47.926Z,50.45
2022-11-14T02:57:08.650Z,41.83
2022-11-14T03:00:29.321Z,42.38
2022-11-14T03:03:50.194Z,59.37
2022-11-14T03:07:13.299Z,153.48
2022-11-14T03:10:34.431Z,56.33
2022-11-14T03:13:55.198Z,30.60
2022-11-14T03:17:15.881Z,24.90
2022-11-14T03:20:36.667Z,31.90
2022-11-14T03:23:57.436Z,30.17
2022-11-14T03:27:18.549Z,39.20
2022-11-14T03:30:39.578Z,43.10
2022-11-14T03:34:00.587Z,42.80
2022-11-14T03:37:21.329Z,45.20
2022-11-14T03:40:43.544Z,61.08
2022-11-14T03:44:04.376Z,60.28
2022-11-14T03:47:25.636Z,50.40
2022-11-14T03:50:48.606Z,50.88
2022-11-14T03:54:09.711Z,61.27
2022-11-14T03:57:30.686Z,47.20
2022-11-14T04:00:51.733Z,44.50
2022-11-14T04:04:13.464Z,44.40
2022-11-14T04:07:34.398Z,44.95
2022-11-14T04:10:55.351Z,34.53
2022-11-14T04:14:15.994Z,59.20
2022-11-14T04:17:39.779Z,65.30
2022-11-14T04:21:00.917Z,57.58
2022-11-14T04:24:21.686Z,43.45
2022-11-14T04:27:43.296Z,57.60
2022-11-14T04:31:04.465Z,67.90
2022-11-14T04:34:25.322Z,48.72
2022-11-14T04:37:46.396Z,61.90
2022-11-14T04:41:07.488Z,46.42
2022-11-14T04:44:27.973Z,48.40
2022-11-14T04:47:48.608Z,42.75
2022-11-14T04:51:09.316Z,39.13
2022-11-14T04:54:30.043Z,46.45
2022-11-14T04:57:55.904Z,45.45
2022-11-14T05:01:16.917Z,39.40
2022-11-14T05:04:38.025Z,40.38
2022-11-14T05:07:59.177Z,35.33
2022-11-14T05:11:25.314Z,33.88
2022-11-14T05:14:49.981Z,40.22
2022-11-14T05:18:12.179Z,36.73
2022-11-14T05:21:33.526Z,28.48
2022-11-14T05:24:54.376Z,30.08
2022-11-14T05:28:15.100Z,37.97
2022-11-14T05:31:35.791Z,27.40
2022-11-14T05:34:56.422Z,24.10
2022-11-14T05:38:18.203Z,31.40
2022-11-14T05:41:39.461Z,24.90
2022-11-14T05:45:00.526Z,24.98
2022-11-14T05:48:21.343Z,29.52
2022-11-14T05:51:42.190Z,30.80
2022-11-14T05:55:03.218Z,29.42
2022-11-14T05:58:25.128Z,32.58
2022-11-14T06:01:46.843Z,43.33
2022-11-14T06:05:08.149Z,74.88
2022-11-14T06:08:30.347Z,42.10
2022-11-14T06:11:52.182Z,28.23
2022-11-14T06:15:13.556Z,36.80
2022-11-14T06:18:35.394Z,40.47
2022-11-14T06:21:56.804Z,37.08
2022-11-14T06:25:17.956Z,32.53
2022-11-14T06:28:39.076Z,32.50
2022-11-14T06:32:00.181Z,35.50
2022-11-14T06:35:21.445Z,29.23
2022-11-14T06:38:43.400Z,29.75
2022-11-14T06:42:04.604Z,37.63
2022-11-14T06:45:25.660Z,50.58
2022-11-14T06:48:48.423Z,35.67
2022-11-14T06:52:09.706Z,32.97
2022-11-14T06:55:30.777Z,48.17
2022-11-14T06:58:52.736Z,34.47
2022-11-14T07:02:20.531Z,48.03
2022-11-14T07:05:44.070Z,54.78
2022-11-14T07:09:06.464Z,57.65
2022-11-14T07:12:30.118Z,49.47
2022-11-14T07:15:56.044Z,43.40
2022-11-14T07:19:17.523Z,63.20
2022-11-14T07:22:38.687Z,57.67
2022-11-14T07:26:07.040Z,66.10
2022-11-14T07:29:28.605Z,63.08
2022-11-14T07:32:58.715Z,57.20
2022-11-14T07:36:19.878Z,53.22
2022-11-14T07:39:40.947Z,46.45
2022-11-14T07:43:02.458Z,42.78
2022-11-14T07:46:23.620Z,32.75
2022-11-14T07:49:44.993Z,35.27
2022-11-14T07:53:06.247Z,46.47
2022-11-14T07:56:27.431Z,31.67
2022-11-14T07:59:48.906Z,24.52
2022-11-14T08:03:11.721Z,32.83
2022-11-14T08:06:34.594Z,31.97
2022-11-14T08:09:55.963Z,27.23
2022-11-14T08:13:31.552Z,39.40
2022-11-14T08:16:53.759Z,35.90
2022-11-14T08:20:18.672Z,28.55
2022-11-14T08:23:39.826Z,35.63
2022-11-14T08:27:00.965Z,30.25
2022-11-14T08:30:22.129Z,31.08
2022-11-14T08:33:43.192Z,27.92
2022-11-14T08:37:04.351Z,27.65
2022-11-14T08:40:25.766Z,30.73
2022-11-14T08:43:47.146Z,27.67
2022-11-14T08:47:07.880Z,27.30
2022-11-14T08:50:29.246Z,22.48
2022-11-14T08:53:52.396Z,23.42
2022-11-14T08:57:15.388Z,33.77
2022-11-14T09:00:37.133Z,38.38
2022-11-14T09:04:00.176Z,29.88
2022-11-14T09:07:21.304Z,23.85
2022-11-14T09:10:43.410Z,45.08
2022-11-14T09:14:04.659Z,38.23
2022-11-14T09:17:25.484Z,30.10
2022-11-14T09:20:46.261Z,40.70
2022-11-14T09:24:07.481Z,39.75
2022-11-14T09:27:28.407Z,26.10
2022-11-14T09:30:50.205Z,43.63
2022-11-14T09:34:11.517Z,27.73
2022-11-14T09:37:32.996Z,60.28
2022-11-14T09:41:10.010Z,31.15
2022-11-14T09:45:10.298Z,43.95
2022-11-14T09:48:31.918Z,35.30
2022-11-14T09:52:00.940Z,34.00
2022-11-14T09:55:25.911Z,34.40
2022-11-14T09:58:47.154Z,34.05
2022-11-14T10:02:38.315Z,31.48
2022-11-14T10:06:04.388Z,32.50
2022-11-14T10:09:59.103Z,44.70
2022-11-14T10:13:45.884Z,51.05
2022-11-14T10:17:53.028Z,31.08
2022-11-14T10:21:29.345Z,43.35
2022-11-14T10:25:21.516Z,50.10
2022-11-14T10:28:52.663Z,27.27
2022-11-14T10:32:35.718Z,55.88
2022-11-14T10:36:08.155Z,54.92
2022-11-14T10:39:51.587Z,57.63
2022-11-14T10:43:18.389Z,65.23
2022-11-14T10:46:51.591Z,75.93
2022-11-14T10:50:17.263Z,52.50
2022-11-14T10:53:58.645Z,39.33
2022-11-14T10:57:21.972Z,39.47
2022-11-14T11:00:43.685Z,43.13
2022-11-14T11:04:32.673Z,40.00
2022-11-14T11:08:36.589Z,47.67
2022-11-14T11:11:59.237Z,57.53
2022-11-14T11:15:20.452Z,44.10
2022-11-14T11:18:41.572Z,47.80
2022-11-14T11:22:02.687Z,36.70
2022-11-14T11:25:26.828Z,40.50
2022-11-14T11:29:08.885Z,43.65
2022-11-14T11:32:30.086Z,55.78
2022-11-14T11:35:57.329Z,39.17
2022-11-14T11:39:29.628Z,42.42
2022-11-14T11:46:55.509Z,37.17
2022-11-14T11:50:18.533Z,33.00
2022-11-14T11:53:40.531Z,32.67
2022-11-14T11:57:03.990Z,36.08
2022-11-14T12:00:25.624Z,91.32
2022-11-14T12:03:51.536Z,38.78
2022-11-14T12:07:15.864Z,47.03
2022-11-14T12:10:41.540Z,39.03
2022-11-14T12:14:34.211Z,34.15
2022-11-14T12:17:55.162Z,36.92
2022-11-14T12:21:38.105Z,36.03
2022-11-14T12:25:01.914Z,33.50
2022-11-14T12:28:41.968Z,33.17
2022-11-14T12:32:06.700Z,39.50
2022-11-14T12:35:30.755Z,37.92
2022-11-14T12:38:54.573Z,42.83
2022-11-14T12:42:20.417Z,51.33
2022-11-14T12:45:41.159Z,42.50
2022-11-14T12:49:01.985Z,45.75
2022-11-14T12:52:45.696Z,41.42
2022-11-14T12:56:15.554Z,47.40
2022-11-14T12:59:47.521Z,47.45
2022-11-14T13:03:19.662Z,41.13
2022-11-14T13:07:04.541Z,48.70
2022-11-14T13:10:40.258Z,57.35
2022-11-14T13:14:21.094Z,50.50
2022-11-14T13:18:35.107Z,50.35
2022-11-14T13:22:21.340Z,42.57
2022-11-14T13:25:42.471Z,54.60
2022-11-14T13:29:03.481Z,50.45
2022-11-14T13:32:42.610Z,54.05
2022-11-14T13:36:05.408Z,43.92
2022-11-14T13:39:44.704Z,62.37
2022-11-14T13:43:34.802Z,62.50
2022-11-14T13:47:03.306Z,57.15
2022-11-14T13:50:38.396Z,64.38
2022-11-14T13:53:59.209Z,55.05
2022-11-14T13:57:42.354Z,44.70
2022-11-14T14:01:28.914Z,73.88
2022-11-14T14:04:52.921Z,116.13
2022-11-14T14:08:36.730Z,81.43
2022-11-14T14:12:07.798Z,76.72
2022-11-14T14:15:41.482Z,71.77
2022-11-14T14:19:36.568Z,78.40
2022-11-14T14:23:30.829Z,158.15
2022-11-14T14:27:06.353Z,78.07
2022-11-14T14:30:29.486Z,99.40
2022-11-14T14:33:52.149Z,106.27
2022-11-14T14:37:18.731Z,88.28
2022-11-14T14:40:42.657Z,118.80
2022-11-14T14:44:03.929Z,202.48
2022-11-14T14:47:33.387Z,153.35
2022-11-14T14:50:59.532Z,91.50
2022-11-14T14:54:22.403Z,99.10
2022-11-14T14:57:43.238Z,97.80
2022-11-14T15:01:07.470Z,99.70
2022-11-14T15:04:29.221Z,97.00
2022-11-14T15:07:51.401Z,140.67
2022-11-14T15:11:14.104Z,181.88
2022-11-14T15:14:37.947Z,126.20
2022-11-14T15:18:02.849Z,150.50
2022-11-14T15:21:29.711Z,181.52
2022-11-14T15:25:11.996Z,199.57
2022-11-14T15:28:33.762Z,142.40
2022-11-14T15:32:01.552Z,155.13
2022-11-14T15:35:31.088Z,141.52
2022-11-14T15:38:59.709Z,130.15
2022-11-14T15:42:23.581Z,106.93
2022-11-14T15:45:44.438Z,130.82
2022-11-14T15:49:15.051Z,116.47
2022-11-14T15:52:46.424Z,122.90
2022-11-14T15:56:11.370Z,138.40
2022-11-14T15:59:32.228Z,136.57
2022-11-14T16:02:54.999Z,111.50
2022-11-14T16:06:16.958Z,99.78
2022-11-14T16:09:37.830Z,91.78
2022-11-14T16:12:58.916Z,86.38
2022-11-14T16:16:19.546Z,78.17
2022-11-14T16:19:40.632Z,169.30
2022-11-14T16:23:01.321Z,107.82
2022-11-14T16:26:22.135Z,284.25
2022-11-14T16:29:43.280Z,161.02
2022-11-14T16:33:04.248Z,124.80
2022-11-14T16:36:25.160Z,111.35
2022-11-14T16:39:46.121Z,94.95
2022-11-14T16:43:06.784Z,99.07
2022-11-14T16:46:27.763Z,118.30
2022-11-14T16:49:48.807Z,95.57
2022-11-14T16:53:10.030Z,100.85
2022-11-14T16:56:31.124Z,93.80
2022-11-14T16:59:51.807Z,131.75
2022-11-14T17:03:14.156Z,77.93
2022-11-14T17:06:35.273Z,112.93
2022-11-14T17:09:56.486Z,84.80
2022-11-14T17:13:28.693Z,93.95
2022-11-14T17:16:50.061Z,119.10
2022-11-14T17:20:11.496Z,76.70
2022-11-14T17:23:32.337Z,95.43
2022-11-14T17:26:53.189Z,104.72
2022-11-14T17:30:16.088Z,131.75
2022-11-14T17:33:38.027Z,105.35
2022-11-14T17:36:58.959Z,89.05
2022-11-14T17:40:19.891Z,89.67
2022-11-14T17:43:41.068Z,99.43
2022-11-14T17:47:02.250Z,170.32
2022-11-14T17:50:24.810Z,135.52
2022-11-14T17:53:46.033Z,75.28
2022-11-14T17:57:07.032Z,85.00
2022-11-14T18:00:28.261Z,109.65
2022-11-14T18:03:49.991Z,79.05
2022-11-14T18:07:11.741Z,85.20
2022-11-14T18:10:33.866Z,79.88
2022-11-14T18:13:56.049Z,105.33
2022-11-14T18:17:17.077Z,110.28
2022-11-14T18:20:38.753Z,92.00
2022-11-14T18:24:00.271Z,87.65
2022-11-14T18:27:21.505Z,96.10
2022-11-14T18:30:43.408Z,105.87
2022-11-14T18:34:05.333Z,85.53
2022-11-14T18:37:26.227Z,139.85
2022-11-14T18:40:54.327Z,142.23
2022-11-14T18:44:18.667Z,104.72
2022-11-14T18:47:39.778Z,173.77
2022-11-14T18:51:05.253Z,170.45
2022-11-14T18:54:26.230Z,194.60
2022-11-14T18:57:47.508Z,168.20
2022-11-14T19:01:15.827Z,215.88
2022-11-14T19:04:36.781Z,200.30
2022-11-14T19:07:57.826Z,138.73
2022-11-14T19:11:37.633Z,156.77
2022-11-14T19:15:00.192Z,119.85
2022-11-14T19:18:21.850Z,124.80
2022-11-14T19:21:45.485Z,158.37
2022-11-14T19:25:07.679Z,225.85
2022-11-14T19:28:29.522Z,155.20
2022-11-14T19:31:50.538Z,128.27
2022-11-14T19:35:14.750Z,109.10
2022-11-14T19:38:41.538Z,105.73
2022-11-14T19:42:03.257Z,88.97
2022-11-14T19:45:24.236Z,110.50
2022-11-14T19:48:45.587Z,149.30
2022-11-14T19:52:06.618Z,107.50
2022-11-14T19:55:28.033Z,125.37
2022-11-14T19:58:50.707Z,124.38
2022-11-14T20:02:15.710Z,113.88
2022-11-14T20:05:38.481Z,91.15
2022-11-14T20:09:01.711Z,97.32
2022-11-14T20:12:22.855Z,76.17
2022-11-14T20:15:44.213Z,80.32
2022-11-14T20:19:05.440Z,85.82
2022-11-14T20:22:26.392Z,107.50
2022-11-14T20:25:52.686Z,100.50
2022-11-14T20:29:14.916Z,113.93
2022-11-14T20:32:36.233Z,140.20
2022-11-14T20:36:04.359Z,115.47
2022-11-14T20:39:25.662Z,103.63
2022-11-14T20:42:48.947Z,106.13
2022-11-14T20:46:15.254Z,82.23
2022-11-14T20:49:36.594Z,111.65
2022-11-14T20:52:57.933Z,91.03
2022-11-14T20:56:19.244Z,100.10
2022-11-14T20:59:40.380Z,78.20
2022-11-14T21:03:01.383Z,75.43
2022-11-14T21:06:22.036Z,64.10
2022-11-14T21:09:43.251Z,62.75
2022-11-14T21:13:26.630Z,62.33
2022-11-14T21:16:47.696Z,81.22
2022-11-14T21:20:09.412Z,66.60
2022-11-14T21:23:30.723Z,49.85
2022-11-14T21:26:51.833Z,59.85
2022-11-14T21:30:13.098Z,102.80
2022-11-14T21:33:34.330Z,83.82
2022-11-14T21:36:55.179Z,67.33
2022-11-14T21:40:16.790Z,89.53
2022-11-14T21:43:38.203Z,68.40
2022-11-14T21:47:00.258Z,76.97
2022-11-14T21:50:22.443Z,96.95
2022-11-14T21:53:45.453Z,73.63
2022-11-14T21:57:09.975Z,77.43
2022-11-14T22:00:32.443Z,133.98
2022-11-14T22:04:11.486Z,75.82
2022-11-14T22:07:32.640Z,80.07
2022-11-14T22:10:54.156Z,81.50
2022-11-14T22:14:15.356Z,107.55
2022-11-14T22:17:36.114Z,80.60
2022-11-14T22:20:59.504Z,59.00
2022-11-14T22:24:20.523Z,80.75
2022-11-14T22:27:42.456Z,87.43
2022-11-14T22:31:13.098Z,96.60
2022-11-14T22:34:34.614Z,96.47
2022-11-14T22:37:55.622Z,82.43
2022-11-14T22:41:21.102Z,60.15
2022-11-14T22:44:42.278Z,69.20
2022-11-14T22:48:03.389Z,63.28
2022-11-14T22:51:26.473Z,82.88
2022-11-14T22:54:47.224Z,102.88
2022-11-14T22:58:07.881Z,80.03
2022-11-14T23:01:31.415Z,61.67
2022-11-14T23:04:52.559Z,79.18
2022-11-14T23:08:18.061Z,69.78
2022-11-14T23:11:40.316Z,69.72
2022-11-14T23:15:04.362Z,67.38
2022-11-14T23:18:25.163Z,71.70
2022-11-14T23:21:46.075Z,59.40
2022-11-14T23:25:07.072Z,70.47
2022-11-14T23:28:30.058Z,67.35
2022-11-14T23:31:50.968Z,88.53
2022-11-14T23:35:11.710Z,66.90
2022-11-14T23:38:32.768Z,82.07
2022-11-14T23:41:53.422Z,64.00
2022-11-14T23:45:14.257Z,96.88
2022-11-14T23:48:36.831Z,44.47
2022-11-14T23:51:58.044Z,95.43
2022-11-14T23:55:19.194Z,89.32
2022-11-14T23:58:40.611Z,66.85
